Time,TemperatureF,DewpointF,PressureIn,WindDirection,WindDirectionDegrees,WindSpeedMPH,WindSpeedGustMPH,Humidity,HourlyPrecipIn,Conditions,Clouds,dailyrainin,SoftwareType,DateUTC
2013-04-11 00:01:00,39.3,38.0,29.79,East,87,0.0,3.0,94,0.00,,,0.00,weatherlink.com 1.10,2013-04-11 05:01:00,
2013-04-11 00:16:00,39.3,38.0,29.79,ESE,108,0.0,3.0,94,0.01,,,0.01,weatherlink.com 1.10,2013-04-11 05:16:00,
2013-04-11 00:31:00,39.2,38.0,29.78,East,94,0.0,3.0,95,0.01,,,0.01,weatherlink.com 1.10,2013-04-11 05:31:00,
2013-04-11 00:47:00,39.3,38.0,29.77,East,92,0.0,2.0,95,0.02,,,0.02,weatherlink.com 1.10,2013-04-11 05:47:00,
2013-04-11 01:02:00,39.3,38.0,29.75,NE,42,2.0,7.0,95,0.02,,,0.02,weatherlink.com 1.10,2013-04-11 06:02:00,
2013-04-11 01:17:00,39.4,38.0,29.75,East,94,0.0,6.0,95,0.02,,,0.03,weatherlink.com 1.10,2013-04-11 06:17:00,
2013-04-11 01:32:00,39.4,38.0,29.75,ENE,71,0.0,4.0,95,0.03,,,0.04,weatherlink.com 1.10,2013-04-11 06:32:00,
2013-04-11 01:47:00,39.5,38.0,29.76,ESE,104,0.0,3.0,95,0.02,,,0.04,weatherlink.com 1.10,2013-04-11 06:47:00,
2013-04-11 02:17:00,39.4,38.0,29.75,ENE,71,0.0,3.0,95,0.04,,,0.07,weatherlink.com 1.10,2013-04-11 07:17:00,
2013-04-11 02:32:00,39.3,38.0,29.74,ENE,65,2.0,5.0,95,0.04,,,0.08,weatherlink.com 1.10,2013-04-11 07:32:00,
2013-04-11 02:47:00,39.3,38.0,29.74,NE,49,1.0,1.0,95,0.06,,,0.10,weatherlink.com 1.10,2013-04-11 07:47:00,
2013-04-11 03:02:00,39.1,38.0,29.74,NE,36,1.0,3.0,95,0.06,,,0.11,weatherlink.com 1.10,2013-04-11 08:02:00,
2013-04-11 03:17:00,39.0,38.0,29.73,NE,38,2.0,4.0,95,0.06,,,0.13,weatherlink.com 1.10,2013-04-11 08:17:00,
2013-04-11 03:32:00,38.9,38.0,29.73,NE,40,0.0,3.0,95,0.05,,,0.13,weatherlink.com 1.10,2013-04-11 08:32:00,
2013-04-11 03:47:00,38.8,38.0,29.74,NE,39,0.0,1.0,95,0.05,,,0.15,weatherlink.com 1.10,2013-04-11 08:47:00,
2013-04-11 04:02:00,38.7,37.0,29.73,NE,39,0.0,2.0,95,0.04,,,0.15,weatherlink.com 1.10,2013-04-11 09:02:00,
2013-04-11 04:17:00,38.7,37.0,29.71,North,10,4.0,5.0,95,0.03,,,0.16,weatherlink.com 1.10,2013-04-11 09:17:00,
2013-04-11 04:32:00,38.4,37.0,29.70,North,355,5.0,6.0,95,0.03,,,0.16,weatherlink.com 1.10,2013-04-11 09:32:00,
2013-04-11 04:47:00,37.9,37.0,29.68,NE,36,5.0,8.0,95,0.01,,,0.16,weatherlink.com 1.10,2013-04-11 09:47:00,
2013-04-11 05:02:00,37.5,36.0,29.67,NNE,15,5.0,8.0,95,0.01,,,0.16,weatherlink.com 1.10,2013-04-11 10:02:00,
2013-04-11 05:17:00,37.4,36.0,29.66,NE,56,5.0,8.0,95,0.00,,,0.16,weatherlink.com 1.10,2013-04-11 10:17:00,
2013-04-11 05:32:00,37.3,36.0,29.67,NE,54,2.0,8.0,95,0.00,,,0.16,weatherlink.com 1.10,2013-04-11 10:32:00,
2013-04-11 05:47:00,37.3,36.0,29.68,East,83,2.0,5.0,95,0.00,,,0.16,weatherlink.com 1.10,2013-04-11 10:47:00,
2013-04-11 06:02:00,37.5,37.0,29.69,NE,51,2.0,4.0,96,0.00,,,0.16,weatherlink.com 1.10,2013-04-11 11:02:00,
2013-04-11 06:17:00,37.8,37.0,29.69,East,94,1.0,4.0,96,0.00,,,0.16,weatherlink.com 1.10,2013-04-11 11:17:00,
2013-04-11 06:32:00,37.9,37.0,29.68,East,90,2.0,3.0,96,0.00,,,0.16,weatherlink.com 1.10,2013-04-11 11:32:00,
2013-04-11 06:47:00,38.1,37.0,29.67,ESE,102,2.0,2.0,96,0.00,,,0.16,weatherlink.com 1.10,2013-04-11 11:47:00,
2013-04-11 07:02:00,38.2,37.0,29.67,East,101,0.0,2.0,96,0.00,,,0.16,weatherlink.com 1.10,2013-04-11 12:02:00,
2013-04-11 07:17:00,38.4,37.0,29.67,ESE,111,0.0,2.0,96,0.00,,,0.16,weatherlink.com 1.10,2013-04-11 12:17:00,
2013-04-11 07:32:00,38.5,38.0,29.67,ESE,105,0.0,2.0,96,0.00,,,0.16,weatherlink.com 1.10,2013-04-11 12:32:00,
2013-04-11 07:47:00,38.8,38.0,29.68,SE,138,0.0,2.0,96,0.00,,,0.16,weatherlink.com 1.10,2013-04-11 12:47:00,
2013-04-11 08:02:00,39.1,38.0,29.68,South,186,0.0,3.0,96,0.00,,,0.16,weatherlink.com 1.10,2013-04-11 13:02:00,
2013-04-11 08:17:00,39.1,38.0,29.68,SSE,160,0.0,3.0,96,0.00,,,0.16,weatherlink.com 1.10,2013-04-11 13:17:00,
2013-04-11 08:32:00,39.4,38.0,29.70,SE,130,2.0,3.0,96,0.00,,,0.16,weatherlink.com 1.10,2013-04-11 13:32:00,
2013-04-11 08:47:00,39.7,39.0,29.69,South,180,2.0,4.0,96,0.00,,,0.16,weatherlink.com 1.10,2013-04-11 13:47:00,
2013-04-11 09:02:00,40.1,39.0,29.68,SSE,159,0.0,3.0,96,0.01,,,0.17,weatherlink.com 1.10,2013-04-11 14:02:00,
2013-04-11 09:17:00,40.2,39.0,29.67,SW,235,8.0,9.0,96,0.01,,,0.17,weatherlink.com 1.10,2013-04-11 14:17:00,
2013-04-11 09:32:00,40.4,39.0,29.67,West,263,5.0,9.0,95,0.01,,,0.17,weatherlink.com 1.10,2013-04-11 14:32:00,
2013-04-11 09:47:00,40.5,39.0,29.67,WSW,252,9.0,11.0,94,0.01,,,0.17,weatherlink.com 1.10,2013-04-11 14:47:00,
2013-04-11 10:02:00,40.9,39.0,29.67,West,259,6.0,8.0,92,0.00,,,0.17,weatherlink.com 1.10,2013-04-11 15:02:00,
2013-04-11 10:17:00,40.5,38.0,29.68,West,271,6.0,10.0,92,0.00,,,0.17,weatherlink.com 1.10,2013-04-11 15:17:00,
2013-04-11 10:32:00,40.7,38.0,29.67,West,276,7.0,10.0,91,0.00,,,0.17,weatherlink.com 1.10,2013-04-11 15:32:00,
2013-04-11 10:47:00,41.0,38.0,29.67,West,271,6.0,10.0,90,0.00,,,0.17,weatherlink.com 1.10,2013-04-11 15:47:00,
2013-04-11 11:02:00,41.2,39.0,29.66,West,270,5.0,9.0,90,0.00,,,0.17,weatherlink.com 1.10,2013-04-11 16:02:00,
2013-04-11 11:17:00,41.1,38.0,29.65,SW,221,8.0,13.0,88,0.00,,,0.17,weatherlink.com 1.10,2013-04-11 16:17:00,
2013-04-11 11:32:00,40.8,38.0,29.66,WSW,242,5.0,13.0,88,0.00,,,0.17,weatherlink.com 1.10,2013-04-11 16:32:00,
2013-04-11 11:47:00,40.5,38.0,29.66,WSW,246,9.0,13.0,89,0.00,,,0.17,weatherlink.com 1.10,2013-04-11 16:47:00,
2013-04-11 12:03:00,40.2,37.0,29.67,WSW,247,5.0,11.0,87,0.00,,,0.17,weatherlink.com 1.10,2013-04-11 17:03:00,
2013-04-11 12:18:00,40.0,37.0,29.66,West,263,6.0,13.0,87,0.00,,,0.17,weatherlink.com 1.10,2013-04-11 17:18:00,
2013-04-11 12:33:00,39.5,36.0,29.67,WSW,257,8.0,14.0,88,0.00,,,0.17,weatherlink.com 1.10,2013-04-11 17:33:00,
2013-04-11 12:49:00,39.5,37.0,29.66,WSW,254,7.0,15.0,91,0.00,,,0.17,weatherlink.com 1.10,2013-04-11 17:49:00,
2013-04-11 13:03:00,39.5,37.0,29.67,WSW,250,7.0,12.0,91,0.01,,,0.18,weatherlink.com 1.10,2013-04-11 18:03:00,
2013-04-11 13:18:00,39.5,37.0,29.67,West,273,5.0,11.0,91,0.01,,,0.18,weatherlink.com 1.10,2013-04-11 18:18:00,
2013-04-11 13:33:00,39.3,37.0,29.66,WSW,249,9.0,13.0,91,0.01,,,0.18,weatherlink.com 1.10,2013-04-11 18:33:00,
2013-04-11 13:48:00,38.8,36.0,29.67,West,281,7.0,13.0,91,0.01,,,0.18,weatherlink.com 1.10,2013-04-11 18:48:00,
2013-04-11 14:03:00,38.6,36.0,29.67,West,279,6.0,13.0,90,0.00,,,0.18,weatherlink.com 1.10,2013-04-11 19:03:00,
2013-04-11 14:18:00,38.0,36.0,29.67,West,278,9.0,15.0,92,0.01,,,0.19,weatherlink.com 1.10,2013-04-11 19:18:00,
2013-04-11 14:33:00,37.4,36.0,29.68,WSW,252,5.0,14.0,93,0.01,,,0.19,weatherlink.com 1.10,2013-04-11 19:33:00,
2013-04-11 14:48:00,38.4,36.0,29.68,West,273,4.0,16.0,90,0.01,,,0.19,weatherlink.com 1.10,2013-04-11 19:48:00,
2013-04-11 15:03:00,38.2,36.0,29.68,WNW,298,8.0,16.0,90,0.01,,,0.19,weatherlink.com 1.10,2013-04-11 20:03:00,
2013-04-11 15:18:00,38.9,35.0,29.68,SW,226,7.0,18.0,87,0.00,,,0.19,weatherlink.com 1.10,2013-04-11 20:18:00,
2013-04-11 15:33:00,38.9,36.0,29.68,WSW,252,8.0,13.0,88,0.00,,,0.19,weatherlink.com 1.10,2013-04-11 20:33:00,
2013-04-11 15:48:00,39.7,37.0,29.67,SW,215,5.0,13.0,89,0.00,,,0.19,weatherlink.com 1.10,2013-04-11 20:48:00,
2013-04-11 16:03:00,40.0,37.0,29.66,West,276,3.0,12.0,87,0.00,,,0.19,weatherlink.com 1.10,2013-04-11 21:03:00,
2013-04-11 16:18:00,40.3,36.0,29.66,WNW,290,5.0,12.0,85,0.00,,,0.19,weatherlink.com 1.10,2013-04-11 21:18:00,
2013-04-11 16:33:00,39.5,34.0,29.67,WSW,254,7.0,12.0,82,0.00,,,0.19,weatherlink.com 1.10,2013-04-11 21:33:00,
2013-04-11 16:48:00,39.4,35.0,29.66,West,279,4.0,11.0,84,0.00,,,0.19,weatherlink.com 1.10,2013-04-11 21:48:00,
2013-04-11 17:03:00,38.2,35.0,29.67,SW,223,2.0,16.0,87,0.00,,,0.19,weatherlink.com 1.10,2013-04-11 22:03:00,
2013-04-11 17:18:00,38.6,35.0,29.66,SSW,209,5.0,11.0,88,0.00,,,0.19,weatherlink.com 1.10,2013-04-11 22:18:00,
2013-04-11 17:33:00,37.2,35.0,29.66,WSW,245,8.0,14.0,91,0.00,,,0.19,weatherlink.com 1.10,2013-04-11 22:33:00,
2013-04-11 17:48:00,36.7,35.0,29.66,SW,228,2.0,9.0,93,0.00,,,0.19,weatherlink.com 1.10,2013-04-11 22:48:00,
2013-04-11 18:03:00,37.5,36.0,29.65,WSW,244,4.0,8.0,93,0.00,,,0.19,weatherlink.com 1.10,2013-04-11 23:03:00,
2013-04-11 18:18:00,37.9,35.0,29.65,West,281,4.0,11.0,90,0.00,,,0.19,weatherlink.com 1.10,2013-04-11 23:18:00,
2013-04-11 18:33:00,38.2,35.0,29.65,SW,229,6.0,11.0,87,0.00,,,0.19,weatherlink.com 1.10,2013-04-11 23:33:00,
2013-04-11 18:48:00,38.1,35.0,29.65,WSW,238,6.0,10.0,88,0.00,,,0.19,weatherlink.com 1.10,2013-04-11 23:48:00,
2013-04-11 19:03:00,38.3,35.0,29.65,SW,227,6.0,12.0,86,0.00,,,0.19,weatherlink.com 1.10,2013-04-12 00:03:00,
2013-04-11 19:18:00,38.0,35.0,29.65,SW,231,4.0,15.0,87,0.00,,,0.19,weatherlink.com 1.10,2013-04-12 00:18:00,
2013-04-11 19:33:00,37.8,35.0,29.66,WSW,256,5.0,9.0,88,0.00,,,0.19,weatherlink.com 1.10,2013-04-12 00:33:00,
2013-04-11 19:48:00,37.6,34.0,29.66,SW,232,6.0,11.0,88,0.00,,,0.19,weatherlink.com 1.10,2013-04-12 00:48:00,
2013-04-11 20:03:00,37.5,35.0,29.66,WSW,241,4.0,12.0,89,0.00,,,0.19,weatherlink.com 1.10,2013-04-12 01:03:00,
2013-04-11 20:18:00,37.5,34.0,29.66,WSW,250,7.0,10.0,88,0.00,,,0.19,weatherlink.com 1.10,2013-04-12 01:18:00,
2013-04-11 20:33:00,37.4,35.0,29.66,SSW,211,1.0,7.0,89,0.00,,,0.19,weatherlink.com 1.10,2013-04-12 01:33:00,
2013-04-11 20:48:00,37.5,35.0,29.66,South,187,1.0,6.0,89,0.00,,,0.19,weatherlink.com 1.10,2013-04-12 01:48:00,
2013-04-11 21:03:00,37.6,35.0,29.66,SSW,201,2.0,6.0,89,0.00,,,0.19,weatherlink.com 1.10,2013-04-12 02:03:00,
2013-04-11 21:18:00,37.6,35.0,29.67,SW,215,3.0,6.0,90,0.00,,,0.19,weatherlink.com 1.10,2013-04-12 02:18:00,
2013-04-11 21:33:00,37.5,35.0,29.67,SW,228,5.0,8.0,90,0.00,,,0.19,weatherlink.com 1.10,2013-04-12 02:33:00,
2013-04-11 21:48:00,37.3,35.0,29.66,SSW,212,6.0,7.0,91,0.00,,,0.19,weatherlink.com 1.10,2013-04-12 02:48:00,
2013-04-11 22:03:00,37.2,35.0,29.66,WSW,240,4.0,10.0,91,0.00,,,0.19,weatherlink.com 1.10,2013-04-12 03:03:00,
2013-04-11 22:18:00,37.2,35.0,29.65,WSW,254,5.0,8.0,92,0.00,,,0.19,weatherlink.com 1.10,2013-04-12 03:18:00,
2013-04-11 22:33:00,37.4,35.0,29.66,WSW,246,10.0,11.0,92,0.00,,,0.19,weatherlink.com 1.10,2013-04-12 03:33:00,
2013-04-11 22:48:00,37.6,36.0,29.66,West,266,8.0,12.0,92,0.00,,,0.19,weatherlink.com 1.10,2013-04-12 03:48:00,
2013-04-11 23:03:00,37.5,35.0,29.66,West,266,7.0,11.0,92,0.00,,,0.19,weatherlink.com 1.10,2013-04-12 04:03:00,
2013-04-11 23:18:00,37.5,35.0,29.66,West,267,8.0,12.0,92,0.00,,,0.19,weatherlink.com 1.10,2013-04-12 04:18:00,
2013-04-11 23:33:00,37.4,35.0,29.66,WNW,282,9.0,15.0,90,0.00,,,0.19,weatherlink.com 1.10,2013-04-12 04:33:00,
2013-04-11 23:48:00,37.2,35.0,29.66,West,275,7.0,12.0,91,0.00,,,0.19,weatherlink.com 1.10,2013-04-12 04:48:00,